Time;durP1;ratioP1;P1;durP2;ratioP2;P2;SDS_P1;SDS_P2;PMS_P1;PMS_P2;Temp;Humidity;BMP_temperature;BMP_pressure;BME280_temperature;BME280_humidity;BME280_pressure;Samples;Min_cycle;Max_cycle;Signal;HPM_P1;HPM_P2
2023/06/04 00:05:03;;;;;;;3.92;2.35;;;24.50;79.50;;;;;;11006237;32;20321;-72
2023/06/04 00:11:05;;;;;;;3.70;2.25;;;24.50;79.60;;;;;;11017182;32;20049;-73
2023/06/04 00:17:08;;;;;;;3.08;2.03;;;24.60;79.70;;;;;;11019441;32;20046;-69
2023/06/04 00:23:10;;;;;;;1.87;1.35;;;24.60;80.00;;;;;;11019017;32;20052;-69
2023/06/04 00:29:12;;;;;;;2.87;2.12;;;24.50;80.10;;;;;;11018886;32;20431;-69
2023/06/04 00:35:14;;;;;;;3.37;1.83;;;24.60;80.00;;;;;;11018638;32;20019;-70
2023/06/04 00:41:16;;;;;;;2.58;1.70;;;24.60;79.60;;;;;;11018523;32;20036;-70
2023/06/04 00:47:20;;;;;;;2.15;1.58;;;24.70;79.50;;;;;;11004779;32;20045;-69
2023/06/04 00:53:24;;;;;;;4.57;1.50;;;24.70;79.10;;;;;;11018068;32;20014;-69
2023/06/04 00:59:27;;;;;;;4.80;2.37;;;24.80;78.80;;;;;;11018678;32;20006;-69
2023/06/04 01:05:42;;;;;;;4.25;2.45;;;24.80;78.80;;;;;;10991295;32;20336;-70
2023/06/04 01:11:53;;;;;;;2.37;1.83;;;24.70;78.90;;;;;;11017631;32;20026;-69
2023/06/04 01:18:03;;;;;;;2.97;1.60;;;24.70;78.90;;;;;;11017709;32;20015;-70
2023/06/04 01:24:11;;;;;;;5.43;2.47;;;24.60;79.00;;;;;;11003555;32;20037;-69
2023/06/04 01:30:13;;;;;;;3.12;1.90;;;24.50;78.90;;;;;;11017129;32;20022;-70
2023/06/04 01:36:15;;;;;;;3.90;2.47;;;24.50;78.90;;;;;;10998831;32;20431;-70
2023/06/04 01:42:17;;;;;;;3.72;2.37;;;24.40;78.90;;;;;;11003134;32;20092;-70
2023/06/04 01:48:19;;;;;;;4.03;2.80;;;24.30;79.10;;;;;;11003331;32;20419;-70
2023/06/04 01:54:22;;;;;;;1.98;1.67;;;24.20;79.20;;;;;;11017053;32;20023;-70
2023/06/04 02:00:25;;;;;;;3.17;2.28;;;24.30;78.70;;;;;;11003313;32;20423;-70
2023/06/04 02:06:29;;;;;;;3.47;2.30;;;24.40;78.30;;;;;;11016706;32;20057;-70
2023/06/04 02:12:32;;;;;;;3.78;2.45;;;24.50;78.20;;;;;;11016636;32;20049;-70
2023/06/04 02:18:34;;;;;;;4.55;2.58;;;24.50;78.10;;;;;;11017845;32;20030;-70
2023/06/04 02:24:51;;;;;;;4.25;2.53;;;24.30;78.40;;;;;;11024051;32;20045;-70
2023/06/04 02:30:53;;;;;;;3.45;2.33;;;24.30;78.60;;;;;;11022994;32;20026;-70
2023/06/04 02:37:01;;;;;;;3.53;2.20;;;24.30;78.40;;;;;;11022841;32;20018;-70
2023/06/04 02:43:03;;;;;;;7.57;3.37;;;24.20;78.60;;;;;;11022391;32;20053;-70
2023/06/04 02:49:05;;;;;;;4.97;2.58;;;24.20;78.60;;;;;;11022602;32;20023;-70
2023/06/04 02:55:12;;;;;;;2.70;1.90;;;24.20;78.50;;;;;;11022400;32;20045;-69
2023/06/04 03:01:21;;;;;;;4.00;2.43;;;24.10;78.60;;;;;;11022067;32;20018;-70
2023/06/04 03:07:23;;;;;;;3.75;2.53;;;24.10;78.60;;;;;;11022030;32;20037;-69
2023/06/04 03:13:25;;;;;;;3.20;2.20;;;24.10;78.50;;;;;;11021498;32;20048;-70
2023/06/04 03:19:27;;;;;;;3.78;2.47;;;24.00;78.60;;;;;;11021579;32;20015;-70
2023/06/04 03:25:29;;;;;;;4.53;2.50;;;24.00;78.80;;;;;;11018479;32;20023;-70
2023/06/04 03:31:32;;;;;;;3.30;2.33;;;24.00;78.70;;;;;;11016051;32;20014;-70
2023/06/04 03:37:34;;;;;;;4.07;2.97;;;24.00;78.70;;;;;;11020900;32;20395;-70
2023/06/04 03:43:37;;;;;;;4.03;2.67;;;23.90;78.60;;;;;;11006993;32;20014;-70
2023/06/04 03:49:40;;;;;;;3.87;2.78;;;23.80;78.80;;;;;;11020381;32;20344;-70
2023/06/04 03:55:43;;;;;;;3.42;2.20;;;23.80;78.90;;;;;;11020273;32;20018;-69
2023/06/04 04:01:45;;;;;;;3.37;2.45;;;23.80;79.10;;;;;;11019934;32;20013;-70
2023/06/04 04:07:47;;;;;;;3.83;2.90;;;23.80;79.20;;;;;;11005744;32;20070;-70
2023/06/04 04:13:50;;;;;;;4.50;2.95;;;23.90;79.00;;;;;;11005573;32;20405;-70
2023/06/04 04:19:55;;;;;;;6.22;3.85;;;23.80;79.00;;;;;;11005784;32;20400;-70
2023/06/04 04:26:02;;;;;;;3.37;2.45;;;23.70;79.20;;;;;;11003265;32;20061;-70
2023/06/04 04:32:10;;;;;;;4.95;3.12;;;23.50;79.30;;;;;;11018933;32;20041;-70
2023/06/04 04:38:13;;;;;;;5.25;3.05;;;23.40;79.60;;;;;;11018756;32;20049;-69
2023/06/04 04:44:16;;;;;;;5.05;2.70;;;23.50;79.80;;;;;;11015586;32;20014;-70
2023/06/04 04:50:18;;;;;;;6.00;3.85;;;23.60;79.80;;;;;;11004008;32;20445;-70
2023/06/04 04:56:22;;;;;;;4.90;3.45;;;23.60;79.90;;;;;;11018232;32;20396;-70
2023/06/04 05:02:24;;;;;;;5.82;3.40;;;23.60;79.80;;;;;;11003771;32;20030;-70
2023/06/04 05:08:27;;;;;;;6.72;4.40;;;23.40;80.20;;;;;;11017888;32;20097;-69
2023/06/04 05:14:29;;;;;;;6.55;4.35;;;23.40;80.70;;;;;;11014291;32;20039;-70
2023/06/04 05:20:31;;;;;;;8.27;3.53;;;23.50;80.60;;;;;;11017544;32;20426;-70
2023/06/04 05:26:34;;;;;;;5.55;3.30;;;23.30;80.30;;;;;;11013967;32;20018;-69
2023/06/04 05:32:40;;;;;;;4.70;3.20;;;23.30;80.50;;;;;;11017292;32;20072;-70
2023/06/04 05:38:43;;;;;;;4.87;2.97;;;23.30;80.20;;;;;;11003891;32;20018;-69
2023/06/04 05:44:46;;;;;;;4.97;3.35;;;23.40;80.00;;;;;;11017269;32;20033;-68
2023/06/04 05:50:49;;;;;;;6.20;3.87;;;23.50;80.20;;;;;;11017094;32;20026;-69
2023/06/04 05:56:52;;;;;;;6.20;4.20;;;23.50;80.70;;;;;;11022736;32;20044;-69
2023/06/04 06:02:54;;;;;;;4.05;2.53;;;23.60;80.60;;;;;;11022838;32;20018;-69
2023/06/04 06:08:58;;;;;;;4.57;2.92;;;23.50;80.80;;;;;;11024168;32;20451;-69
2023/06/04 06:15:00;;;;;;;4.30;3.05;;;23.60;80.90;;;;;;11024085;32;20018;-69
2023/06/04 06:21:02;;;;;;;3.55;2.53;;;23.70;80.70;;;;;;11023705;32;20022;-69
2023/06/04 06:27:05;;;;;;;4.30;3.03;;;23.80;80.50;;;;;;10996869;32;20030;-69
2023/06/04 06:33:08;;;;;;;4.85;3.35;;;23.80;80.60;;;;;;11023247;32;20485;-69
2023/06/04 06:39:10;;;;;;;4.28;2.67;;;23.80;81.20;;;;;;11022729;32;20015;-70
2023/06/04 06:45:12;;;;;;;4.28;2.83;;;23.80;81.20;;;;;;11023299;32;20049;-69
2023/06/04 06:51:20;;;;;;;5.87;2.92;;;23.80;81.00;;;;;;11022603;32;20022;-69
2023/06/04 06:57:22;;;;;;;;;;;23.80;81.30;;;;;;11021973;32;20312;-69
2023/06/04 07:03:24;;;;;;;4.97;3.25;;;23.90;81.30;;;;;;11022978;32;19917;-69
2023/06/04 07:09:26;;;;;;;5.40;3.12;;;24.00;81.40;;;;;;11022491;32;20027;-69
2023/06/04 07:15:28;;;;;;;4.75;3.03;;;24.00;81.60;;;;;;11022873;32;20054;-69
2023/06/04 07:21:30;;;;;;;4.18;3.03;;;24.30;81.30;;;;;;11021976;32;20348;-69
2023/06/04 07:27:34;;;;;;;4.53;2.78;;;24.40;81.10;;;;;;11002141;26;20336;-70
2023/06/04 07:33:43;;;;;;;4.00;3.05;;;24.30;81.20;;;;;;10984013;32;20057;-69
2023/06/04 07:39:45;;;;;;;3.72;2.90;;;24.30;81.50;;;;;;10982930;32;20010;-70
2023/06/04 07:45:47;;;;;;;7.25;4.55;;;24.30;81.30;;;;;;10982015;32;20030;-69
2023/06/04 07:51:49;;;;;;;5.82;3.22;;;24.50;80.40;;;;;;10968548;32;20031;-70
2023/06/04 07:57:51;;;;;;;5.53;3.28;;;24.30;80.90;;;;;;10982426;32;20050;-71
2023/06/04 08:03:53;;;;;;;4.05;2.87;;;24.30;81.10;;;;;;10983366;32;20019;-71
2023/06/04 08:09:56;;;;;;;6.82;3.00;;;24.30;81.30;;;;;;10981873;32;20018;-72
2023/06/04 08:15:58;;;;;;;5.85;4.10;;;24.40;81.20;;;;;;10982058;32;20043;-73
2023/06/04 08:22:00;;;;;;;5.47;3.67;;;24.70;81.00;;;;;;10982442;32;20011;-72
2023/06/04 08:28:02;;;;;;;5.68;3.20;;;24.80;81.00;;;;;;10967663;32;20019;-71
2023/06/04 08:34:05;;;;;;;9.95;4.78;;;24.80;80.50;;;;;;10980708;32;20044;-72
2023/06/04 08:40:09;;;;;;;5.53;3.20;;;25.00;81.00;;;;;;10981509;32;20034;-74
2023/06/04 08:46:12;;;;;;;7.35;4.82;;;25.00;80.20;;;;;;10981438;32;20022;-72
2023/06/04 08:52:14;;;;;;;9.40;6.72;;;25.20;79.90;;;;;;10981493;32;20018;-72
2023/06/04 08:58:17;;;;;;;8.10;4.50;;;25.10;80.30;;;;;;10980307;32;20032;-72
2023/06/04 09:04:19;;;;;;;8.18;5.62;;;25.10;80.60;;;;;;10981163;32;20046;-72
2023/06/04 09:10:25;;;;;;;8.48;5.97;;;25.30;80.30;;;;;;10966876;32;20041;-72
2023/06/04 09:16:27;;;;;;;9.85;6.68;;;25.40;80.60;;;;;;10980350;32;20022;-73
2023/06/04 09:22:33;;;;;;;12.80;7.78;;;25.50;80.80;;;;;;10965667;32;20423;-73
2023/06/04 09:28:39;;;;;;;8.05;5.10;;;25.60;80.60;;;;;;10983002;32;20397;-72
2023/06/04 09:34:45;;;;;;;8.68;5.75;;;25.60;80.00;;;;;;10989034;32;20403;-74
2023/06/04 09:40:48;;;;;;;9.18;6.70;;;25.80;79.50;;;;;;10987161;32;20057;-71
2023/06/04 09:46:55;;;;;;;10.13;6.32;;;26.00;79.20;;;;;;10984067;32;20018;-72
2023/06/04 09:52:57;;;;;;;7.90;6.15;;;25.90;78.40;;;;;;10986690;32;20049;-73
2023/06/04 09:59:01;;;;;;;8.32;5.53;;;25.90;79.30;;;;;;10987661;32;20037;-72
2023/06/04 10:05:05;;;;;;;7.07;4.95;;;26.00;79.30;;;;;;10987361;32;20333;-74
2023/06/04 10:11:09;;;;;;;9.07;6.28;;;26.00;79.10;;;;;;10973039;32;20034;-72
2023/06/04 10:17:13;;;;;;;10.23;6.60;;;26.20;78.40;;;;;;10985931;32;20022;-73
2023/06/04 10:23:17;;;;;;;7.82;5.72;;;26.30;77.50;;;;;;10986059;32;20320;-72
2023/06/04 10:29:20;;;;;;;10.98;7.55;;;26.20;76.80;;;;;;10985390;32;20035;-71
2023/06/04 10:35:35;;;;;;;11.27;6.47;;;26.30;76.60;;;;;;10971031;32;20027;-73
2023/06/04 10:41:37;;;;;;;6.93;5.10;;;26.20;77.70;;;;;;10986239;32;20022;-73
2023/06/04 10:47:40;;;;;;;8.30;5.47;;;26.20;78.40;;;;;;10985342;32;20010;-75
2023/06/04 10:53:43;;;;;;;10.45;6.60;;;26.30;78.40;;;;;;10971516;32;20052;-72
2023/06/04 10:59:59;;;;;;;7.15;4.57;;;26.60;76.80;;;;;;10883463;32;20020;-72
2023/06/04 11:06:02;;;;;;;7.57;5.47;;;26.90;77.10;;;;;;10792892;33;20020;-73
2023/06/04 11:12:07;;;;;;;7.60;5.65;;;26.90;77.90;;;;;;10789844;33;20020;-76
2023/06/04 11:18:15;;;;;;;6.95;4.32;;;26.70;76.60;;;;;;10841679;32;20036;-73
2023/06/04 11:24:17;;;;;;;;;;;26.90;76.60;;;;;;10842410;32;20016;-73
2023/06/04 11:30:19;;;;;;;6.85;4.10;;;27.10;76.40;;;;;;10971115;32;20244;-75
2023/06/04 11:36:29;;;;;;;7.53;5.37;;;27.00;76.00;;;;;;10979810;32;20392;-73
2023/06/04 11:42:32;;;;;;;6.70;4.85;;;27.30;77.40;;;;;;10982777;32;20006;-75
2023/06/04 11:48:34;;;;;;;6.95;5.03;;;27.10;76.70;;;;;;10983062;32;20019;-73
2023/06/04 11:54:39;;;;;;;6.82;4.70;;;26.90;76.40;;;;;;10982523;32;20023;-75
2023/06/04 12:00:42;;;;;;;4.93;3.65;;;27.10;76.90;;;;;;10981968;32;20049;-75
2023/06/04 12:07:01;;;;;;;7.85;4.32;;;27.20;76.90;;;;;;10978986;32;20041;-73
2023/06/04 12:13:03;;;;;;;6.43;4.62;;;27.20;74.60;;;;;;10981631;32;20030;-73
2023/06/04 12:19:07;;;;;;;5.55;4.25;;;27.10;75.70;;;;;;10982824;32;20427;-73
2023/06/04 12:25:09;;;;;;;6.80;4.22;;;27.20;76.50;;;;;;10981715;32;20035;-73
2023/06/04 12:31:17;;;;;;;6.00;4.93;;;27.50;74.70;;;;;;10979241;32;20049;-73
2023/06/04 12:37:21;;;;;;;5.37;3.47;;;27.80;74.00;;;;;;10982320;32;20068;-71
2023/06/04 12:43:23;;;;;;;5.70;4.20;;;28.00;73.40;;;;;;10982027;32;20022;-74
2023/06/04 12:49:26;;;;;;;5.00;3.92;;;27.90;73.00;;;;;;10980658;32;20400;-72
2023/06/04 12:55:29;;;;;;;6.18;3.72;;;27.90;72.80;;;;;;10980620;32;20077;-73
2023/06/04 13:01:30;;;;;;;6.95;4.35;;;27.80;72.30;;;;;;10980539;32;20057;-73
2023/06/04 13:07:32;;;;;;;5.93;3.40;;;27.50;73.60;;;;;;10976873;32;20030;-73
2023/06/04 13:13:35;;;;;;;6.50;4.25;;;27.40;73.10;;;;;;10979229;32;20053;-73
2023/06/04 13:19:37;;;;;;;4.75;3.90;;;27.70;74.60;;;;;;10976436;32;20057;-74
2023/06/04 13:25:40;;;;;;;7.12;4.15;;;27.50;74.00;;;;;;10965298;32;20065;-71
2023/06/04 13:31:41;;;;;;;5.72;4.12;;;27.60;73.80;;;;;;10976170;32;20049;-73
2023/06/04 13:38:05;;;;;;;6.30;3.58;;;27.80;74.90;;;;;;10960824;32;20420;-75
2023/06/04 13:44:08;;;;;;;5.55;3.47;;;27.70;74.20;;;;;;10979819;32;20164;-74
2023/06/04 13:50:11;;;;;;;5.00;3.50;;;27.50;74.10;;;;;;10979424;32;20104;-72
2023/06/04 13:56:12;;;;;;;4.60;3.67;;;27.30;73.80;;;;;;10979517;32;20019;-73
2023/06/04 14:02:15;;;;;;;6.90;3.50;;;27.40;73.80;;;;;;10980131;32;20045;-73
2023/06/04 14:08:17;;;;;;;5.65;3.72;;;27.30;73.70;;;;;;10963031;32;20034;-73
2023/06/04 14:14:22;;;;;;;6.28;3.70;;;27.30;73.80;;;;;;10979124;32;20053;-74
2023/06/04 14:20:24;;;;;;;5.12;4.18;;;27.20;72.80;;;;;;10985779;32;20018;-73
2023/06/04 14:26:26;;;;;;;4.70;3.55;;;27.30;72.90;;;;;;10984956;32;20049;-74
2023/06/04 14:32:28;;;;;;;4.07;2.78;;;27.40;72.50;;;;;;10986009;32;20460;-73
2023/06/04 14:38:30;;;;;;;4.72;3.20;;;27.50;71.80;;;;;;10984634;32;20324;-74
2023/06/04 14:44:33;;;;;;;5.57;3.80;;;27.60;70.90;;;;;;10984537;32;20290;-74
2023/06/04 14:50:35;;;;;;;3.55;2.72;;;27.60;71.20;;;;;;10984756;32;20018;-74
2023/06/04 14:56:37;;;;;;;5.68;4.07;;;27.80;70.90;;;;;;10984004;32;20019;-74
2023/06/04 15:02:39;;;;;;;8.55;4.75;;;27.90;71.00;;;;;;10983715;32;20072;-73
2023/06/04 15:08:41;;;;;;;9.27;4.07;;;28.00;72.40;;;;;;10983781;32;20019;-73
2023/06/04 15:14:43;;;;;;;4.07;3.08;;;28.00;71.70;;;;;;10983542;32;20049;-75
2023/06/04 15:20:45;;;;;;;6.62;4.00;;;27.90;72.20;;;;;;10983341;32;20310;-74
2023/06/04 15:26:47;;;;;;;6.28;3.72;;;27.80;71.70;;;;;;10973838;27;20023;-74
2023/06/04 15:32:49;;;;;;;7.93;3.62;;;27.70;72.60;;;;;;10982870;32;20060;-73
2023/06/04 15:38:51;;;;;;;4.28;3.03;;;27.60;72.30;;;;;;10969200;32;20011;-75
2023/06/04 15:44:53;;;;;;;5.65;3.30;;;27.80;71.70;;;;;;10968502;32;20443;-74
2023/06/04 15:50:55;;;;;;;13.07;4.72;;;27.80;70.50;;;;;;10982373;32;20019;-70
2023/06/04 15:56:57;;;;;;;4.60;3.33;;;27.90;70.80;;;;;;10968052;32;20332;-69
2023/06/04 16:02:59;;;;;;;4.72;3.03;;;27.80;70.30;;;;;;10981629;32;20427;-69
2023/06/04 16:09:02;;;;;;;5.85;3.87;;;27.70;70.40;;;;;;10981275;32;20018;-70
2023/06/04 16:15:05;;;;;;;3.90;2.83;;;27.80;69.80;;;;;;10980879;32;20317;-69
2023/06/04 16:21:07;;;;;;;5.82;3.67;;;27.70;69.40;;;;;;10980667;32;20348;-69
2023/06/04 16:27:10;;;;;;;6.90;4.90;;;27.60;69.70;;;;;;10980314;32;20054;-69
2023/06/04 16:33:13;;;;;;;5.57;3.80;;;27.50;69.70;;;;;;10966064;32;20431;-70
2023/06/04 16:39:15;;;;;;;7.18;3.72;;;27.40;68.60;;;;;;10976128;32;20023;-70
2023/06/04 16:46:00;;;;;;;6.53;4.05;;;27.30;69.00;;;;;;10980246;32;20061;-69
2023/06/04 16:52:24;;;;;;;10.52;5.55;;;27.30;68.70;;;;;;10979802;32;20014;-70
2023/06/04 16:58:26;;;;;;;5.80;4.22;;;27.10;69.90;;;;;;10979512;32;20026;-72
2023/06/04 17:04:29;;;;;;;6.10;4.55;;;26.90;69.30;;;;;;10963303;32;20027;-73
2023/06/04 17:10:32;;;;;;;7.07;3.90;;;26.90;69.30;;;;;;10979668;32;20037;-69
2023/06/04 17:23:37;;;;;;;10.48;4.47;;;26.80;69.00;;;;;;10964249;32;20029;-70
2023/06/04 17:29:39;;;;;;;6.28;4.72;;;26.80;69.80;;;;;;10976377;32;20046;-69
2023/06/04 17:35:41;;;;;;;7.95;4.78;;;26.70;69.80;;;;;;10965490;32;20031;-70
2023/06/04 17:41:43;;;;;;;9.05;4.07;;;26.60;70.10;;;;;;10974594;32;20022;-70
2023/06/04 17:47:46;;;;;;;4.12;2.83;;;26.50;70.90;;;;;;10975351;32;20022;-70
2023/06/04 17:53:48;;;;;;;7.28;3.35;;;26.50;70.90;;;;;;10985894;32;20027;-72
2023/06/04 17:59:50;;;;;;;4.47;3.28;;;26.50;71.10;;;;;;10971673;32;20042;-72
2023/06/04 18:05:52;;;;;;;6.18;3.80;;;26.50;71.40;;;;;;10983479;32;20370;-72
2023/06/04 18:11:55;;;;;;;6.00;3.72;;;26.40;71.70;;;;;;10983990;32;20293;-72
2023/06/04 18:17:57;;;;;;;5.47;3.45;;;26.40;72.00;;;;;;10983497;32;20019;-72
2023/06/04 18:23:59;;;;;;;4.15;2.72;;;26.40;72.10;;;;;;10983291;32;20022;-70
2023/06/04 18:30:02;;;;;;;8.88;3.70;;;26.40;72.40;;;;;;10984565;32;20018;-70
2023/06/04 18:36:05;;;;;;;4.37;2.78;;;26.40;72.70;;;;;;10984568;32;20022;-70
2023/06/04 18:42:09;;;;;;;5.25;3.50;;;26.30;73.00;;;;;;10970656;32;20022;-70
2023/06/04 18:48:12;;;;;;;5.07;3.08;;;26.30;73.30;;;;;;10984730;32;20022;-70
2023/06/04 18:54:16;;;;;;;4.72;2.72;;;26.30;73.50;;;;;;10984515;32;20022;-70
2023/06/04 19:00:20;;;;;;;5.15;3.47;;;26.30;73.60;;;;;;10984068;32;20022;-70
2023/06/04 19:06:22;;;;;;;5.25;3.42;;;26.30;74.00;;;;;;10982455;32;20030;-70
2023/06/04 19:12:28;;;;;;;5.60;3.62;;;26.20;74.30;;;;;;10983566;32;20326;-70
2023/06/04 19:18:30;;;;;;;5.25;3.70;;;26.20;74.70;;;;;;10970181;32;20042;-70
2023/06/04 19:24:32;;;;;;;6.12;3.70;;;26.10;74.80;;;;;;10948696;32;20030;-70
2023/06/04 19:30:34;;;;;;;4.28;2.90;;;26.10;75.00;;;;;;10982931;32;20045;-70
2023/06/04 19:36:37;;;;;;;4.03;2.72;;;26.00;75.20;;;;;;10983060;32;20015;-70
2023/06/04 19:42:39;;;;;;;5.43;3.20;;;26.00;75.80;;;;;;10979490;32;20018;-70
2023/06/04 19:48:41;;;;;;;4.82;3.30;;;25.90;76.60;;;;;;10944827;32;20023;-70
2023/06/04 19:54:43;;;;;;;5.70;3.83;;;25.90;76.70;;;;;;10952441;32;20022;-70
2023/06/04 20:00:45;;;;;;;6.20;3.22;;;25.90;76.60;;;;;;10981315;32;20045;-70
2023/06/04 20:06:49;;;;;;;5.05;3.40;;;25.80;76.70;;;;;;10980987;32;20022;-71
2023/06/04 20:12:51;;;;;;;5.30;3.55;;;25.80;76.70;;;;;;10980267;32;20006;-72
2023/06/04 20:18:53;;;;;;;5.20;4.25;;;25.70;76.70;;;;;;10981189;32;20079;-70
2023/06/04 20:24:55;;;;;;;8.70;3.65;;;25.60;76.90;;;;;;10963078;32;20026;-70
2023/06/04 20:30:57;;;;;;;7.20;3.67;;;25.60;77.00;;;;;;10980803;32;20026;-70
2023/06/04 20:37:02;;;;;;;6.05;3.62;;;25.50;77.10;;;;;;10980575;32;20030;-70
2023/06/04 20:43:04;;;;;;;7.70;3.85;;;25.50;77.20;;;;;;10980269;32;20022;-70
2023/06/04 20:49:06;;;;;;;7.15;4.40;;;25.40;77.30;;;;;;10980354;32;20023;-70
2023/06/04 20:55:09;;;;;;;5.75;3.92;;;25.30;77.30;;;;;;10966357;32;20053;-70
2023/06/04 21:01:35;;;;;;;6.55;4.43;;;25.30;77.40;;;;;;10947495;32;20415;-70
2023/06/04 21:07:37;;;;;;;6.82;3.83;;;25.30;77.50;;;;;;10942359;32;20428;-70
2023/06/04 21:13:39;;;;;;;6.72;4.12;;;25.30;77.80;;;;;;10942073;32;20019;-70
2023/06/04 21:19:41;;;;;;;7.03;4.85;;;25.30;77.80;;;;;;10942050;32;20011;-70
2023/06/04 21:25:44;;;;;;;5.75;3.83;;;25.30;77.60;;;;;;10927746;32;20027;-70
2023/06/04 21:31:46;;;;;;;7.25;5.05;;;25.30;77.60;;;;;;10979233;32;20019;-70
2023/06/04 21:37:48;;;;;;;6.97;4.90;;;25.10;77.60;;;;;;10979207;32;20018;-71
2023/06/04 21:43:50;;;;;;;10.57;5.87;;;24.90;77.30;;;;;;10979105;32;20076;-71
2023/06/04 21:49:53;;;;;;;7.72;4.75;;;24.80;77.60;;;;;;10979047;32;20014;-71
2023/06/04 21:55:55;;;;;;;6.60;4.70;;;24.70;77.50;;;;;;10951523;32;20027;-70
2023/06/04 22:01:57;;;;;;;5.15;3.37;;;24.50;77.40;;;;;;10978844;32;20046;-70
2023/06/04 22:08:00;;;;;;;7.75;4.37;;;24.40;77.50;;;;;;10978819;32;20061;-71
2023/06/04 22:14:02;;;;;;;6.50;4.47;;;24.30;77.40;;;;;;10978669;32;20049;-70
2023/06/04 22:20:05;;;;;;;4.68;3.00;;;24.20;77.20;;;;;;10978600;32;20042;-70
2023/06/04 22:26:07;;;;;;;4.53;2.95;;;24.00;77.20;;;;;;10965090;32;20019;-71
2023/06/04 22:32:10;;;;;;;5.05;3.85;;;23.90;77.50;;;;;;10977999;32;20054;-71
2023/06/04 22:38:12;;;;;;;5.32;3.50;;;23.80;77.50;;;;;;10982875;32;20320;-71
2023/06/04 22:44:14;;;;;;;5.80;2.87;;;23.90;77.60;;;;;;10984953;32;20014;-70
2023/06/04 22:50:16;;;;;;;4.90;3.75;;;23.80;77.50;;;;;;10984700;32;20049;-70
2023/06/04 22:56:19;;;;;;;6.62;3.85;;;23.70;77.20;;;;;;10984534;32;20006;-70
2023/06/04 23:02:21;;;;;;;5.68;4.03;;;23.70;77.50;;;;;;10984218;32;20019;-70
2023/06/04 23:08:23;;;;;;;5.93;3.17;;;23.80;77.80;;;;;;10984179;32;20377;-71
2023/06/04 23:14:25;;;;;;;3.33;2.50;;;23.90;77.80;;;;;;10983817;32;20041;-70
2023/06/04 23:20:27;;;;;;;5.03;3.22;;;23.90;78.00;;;;;;10983711;32;20014;-70
2023/06/04 23:26:29;;;;;;;6.85;4.00;;;23.80;78.30;;;;;;10760976;27;7038183;-71
2023/06/04 23:32:31;;;;;;;5.40;2.83;;;23.80;78.40;;;;;;10945701;32;20085;-71
2023/06/04 23:38:33;;;;;;;4.37;3.08;;;23.80;78.40;;;;;;10946637;32;20024;-70
2023/06/04 23:44:35;;;;;;;4.20;2.83;;;23.80;78.50;;;;;;10946477;32;20022;-71
2023/06/04 23:50:37;;;;;;;4.40;2.60;;;23.80;78.40;;;;;;10945052;32;20026;-71
2023/06/04 23:56:39;;;;;;;4.43;1.60;;;23.60;77.50;;;;;;10942001;32;20050;-70
